DAUL/LOO METAR and TAF weather

Enter ICAO airport designator
Station Type Date Time Source
DAUL METAR 2019/10/18 11:00 UTC NOAA

DAUL 181100Z 26010KT CAVOK 25/14 Q1021


Station Type Date Time Source
DAUL Decoded METAR 2019/10/18 11:00 UTC NOAA

Laghouat, Algeria (DAUL) 33-46N 002-56E 765M
Oct 18, 2019 - 07:00 AM EDT / 2019.10.18 1100 UTC
Wind: from the W (260 degrees) at 12 MPH (10 KT):0
Visibility: greater than 7 mile(s):0
Temperature: 77 F (25 C)
Dew Point: 57 F (14 C)
Relative Humidity: 50%
Pressure (altimeter): 30.15 in. Hg (1021 hPa)
ob: DAUL 181100Z 26010KT CAVOK 25/14 Q1021
cycle: 11

Station Type Date Time Source
DAUL TAF 2017/11/09 18:03 UTC NOAA

TAF DAUL 091700Z 0918/1009 02012KT 9999 SCT030 SCT100 PROB40
TEMPO 0918/0924 35020G30KT 4000 -TSRA FEW030CB

Example: see airport list